createdAt,value
2022-10-02T00:00:02.353Z,11.03
2022-10-02T00:03:03.849Z,11.05
2022-10-02T00:05:51.796Z,11.09
2022-10-02T00:08:39.910Z,11.14
2022-10-02T00:11:29.639Z,11.20
2022-10-02T00:14:19.928Z,11.21
2022-10-02T00:17:06.532Z,11.22
2022-10-02T00:19:55.180Z,11.23
2022-10-02T00:22:57.841Z,11.24
2022-10-02T00:25:51.732Z,11.20
2022-10-02T00:28:52.179Z,11.16
2022-10-02T00:31:44.939Z,11.16
2022-10-02T00:34:30.807Z,11.18
2022-10-02T00:37:28.106Z,11.21
2022-10-02T00:40:22.598Z,11.23
2022-10-02T00:43:17.226Z,11.26
2022-10-02T00:46:09.176Z,11.24
2022-10-02T00:49:13.382Z,11.19
2022-10-02T00:52:02.850Z,11.17
2022-10-02T00:54:55.300Z,11.18
2022-10-02T00:57:43.826Z,11.16
2022-10-02T01:00:29.402Z,11.15
2022-10-02T01:03:26.670Z,11.11
2022-10-02T01:06:11.911Z,11.09
2022-10-02T01:08:57.790Z,11.03
2022-10-02T01:11:43.241Z,11.00
2022-10-02T01:14:35.368Z,10.99
2022-10-02T01:17:33.037Z,10.96
2022-10-02T01:20:24.669Z,10.94
2022-10-02T01:23:15.917Z,10.90
2022-10-02T01:26:01.458Z,10.88
2022-10-02T01:28:47.121Z,10.87
2022-10-02T01:31:32.899Z,10.85
2022-10-02T01:34:18.297Z,10.84
2022-10-02T01:37:03.661Z,10.83
2022-10-02T01:39:49.305Z,10.81
2022-10-02T01:42:35.184Z,10.79
2022-10-02T01:45:26.412Z,10.77
2022-10-02T01:48:31.850Z,10.76
2022-10-02T01:51:35.211Z,10.72
2022-10-02T01:54:37.798Z,10.72
2022-10-02T01:57:42.083Z,10.70
2022-10-02T02:00:31.304Z,10.69
2022-10-02T02:03:36.835Z,10.68
2022-10-02T02:06:42.079Z,10.66
2022-10-02T02:09:30.302Z,10.64
2022-10-02T02:12:20.114Z,10.63
2022-10-02T02:15:12.955Z,10.63
2022-10-02T02:18:05.810Z,10.67
2022-10-02T02:20:53.894Z,10.69
2022-10-02T02:23:40.187Z,10.67
2022-10-02T02:26:26.501Z,10.68
2022-10-02T02:29:13.099Z,10.66
2022-10-02T02:32:00.013Z,10.64
2022-10-02T02:34:48.736Z,10.63
2022-10-02T02:37:36.172Z,10.62
2022-10-02T02:40:24.498Z,10.61
2022-10-02T02:43:17.138Z,10.61
2022-10-02T02:46:11.969Z,10.58
2022-10-02T02:49:02.453Z,10.58
2022-10-02T02:51:48.511Z,10.56
2022-10-02T02:54:37.682Z,10.57
2022-10-02T02:57:30.782Z,10.55
2022-10-02T03:00:16.731Z,10.54
2022-10-02T03:03:02.141Z,10.54
2022-10-02T03:05:49.958Z,10.51
2022-10-02T03:08:37.406Z,10.50
2022-10-02T03:11:22.609Z,10.51
2022-10-02T03:14:26.854Z,10.50
2022-10-02T03:17:25.284Z,10.48
2022-10-02T03:20:16.947Z,10.48
2022-10-02T03:23:02.163Z,10.49
2022-10-02T03:25:59.266Z,10.47
2022-10-02T03:28:57.030Z,10.44
2022-10-02T03:31:43.460Z,10.45
2022-10-02T03:34:31.519Z,10.44
2022-10-02T03:37:17.352Z,10.43
2022-10-02T03:40:04.108Z,10.43
2022-10-02T03:42:49.200Z,10.42
2022-10-02T03:45:51.722Z,10.40
2022-10-02T03:48:37.007Z,10.39
2022-10-02T03:51:23.687Z,10.38
2022-10-02T03:54:19.983Z,10.37
2022-10-02T03:57:07.473Z,10.37
2022-10-02T04:00:09.791Z,10.37
2022-10-02T04:03:00.297Z,10.37
2022-10-02T04:05:52.433Z,10.38
2022-10-02T04:08:47.173Z,10.39
2022-10-02T04:11:35.193Z,10.39
2022-10-02T04:14:41.357Z,10.38
2022-10-02T04:17:44.130Z,10.38
2022-10-02T04:20:41.587Z,10.38
2022-10-02T04:23:29.923Z,10.38
2022-10-02T04:26:19.057Z,10.40
2022-10-02T04:29:21.603Z,10.44
2022-10-02T04:32:14.666Z,10.50
2022-10-02T04:35:00.416Z,10.57
2022-10-02T04:37:45.381Z,10.62
2022-10-02T04:40:50.150Z,10.64
2022-10-02T04:43:53.787Z,10.66
2022-10-02T04:46:45.358Z,10.72
2022-10-02T04:49:30.723Z,10.76
2022-10-02T04:52:19.022Z,10.80
2022-10-02T04:55:07.425Z,10.86
2022-10-02T04:57:52.956Z,10.91
2022-10-02T05:00:56.725Z,10.96
2022-10-02T05:03:50.858Z,11.02
2022-10-02T05:06:57.778Z,11.06
2022-10-02T05:09:58.413Z,11.07
2022-10-02T05:12:53.220Z,11.04
2022-10-02T05:15:47.790Z,11.02
2022-10-02T05:18:51.315Z,11.00
2022-10-02T05:21:42.596Z,10.99
2022-10-02T05:24:50.564Z,10.96
2022-10-02T05:27:44.345Z,10.92
2022-10-02T05:30:36.337Z,10.90
2022-10-02T05:33:48.375Z,10.92
2022-10-02T05:36:44.308Z,10.91
2022-10-02T05:39:33.885Z,10.93
2022-10-02T05:42:45.261Z,10.93
2022-10-02T05:45:39.804Z,10.95
2022-10-02T05:48:34.622Z,10.95
2022-10-02T05:51:25.863Z,11.02
2022-10-02T05:54:29.596Z,11.13
2022-10-02T05:57:26.944Z,11.29
2022-10-02T06:00:29.754Z,11.53
2022-10-02T06:03:23.035Z,11.80
2022-10-02T06:06:16.523Z,11.96
2022-10-02T06:09:18.946Z,11.89
2022-10-02T06:12:20.926Z,11.75
2022-10-02T06:15:06.297Z,11.63
2022-10-02T06:18:09.855Z,11.57
2022-10-02T06:21:03.274Z,11.54
2022-10-02T06:23:51.830Z,11.55
2022-10-02T06:26:39.914Z,11.60
2022-10-02T06:29:28.119Z,11.65
2022-10-02T06:32:30.680Z,11.69
2022-10-02T06:35:18.472Z,11.72
2022-10-02T06:38:03.927Z,11.73
2022-10-02T06:40:58.266Z,11.76
2022-10-02T06:44:09.851Z,11.77
2022-10-02T06:47:03.135Z,11.72
2022-10-02T06:50:02.804Z,11.73
2022-10-02T06:52:48.011Z,11.71
2022-10-02T06:55:41.149Z,11.75
2022-10-02T06:58:45.384Z,11.79
2022-10-02T07:01:34.001Z,11.82
2022-10-02T07:04:27.886Z,11.86
2022-10-02T07:07:13.424Z,12.07
2022-10-02T07:10:05.200Z,12.25
2022-10-02T07:13:11.717Z,12.34
2022-10-02T07:16:07.630Z,12.27
2022-10-02T07:19:08.039Z,12.24
2022-10-02T07:21:53.945Z,12.37
2022-10-02T07:24:39.606Z,12.50
2022-10-02T07:27:50.298Z,12.66
2022-10-02T07:30:44.579Z,12.80
2022-10-02T07:33:36.832Z,12.95
2022-10-02T07:36:43.289Z,13.06
2022-10-02T07:39:47.225Z,13.25
2022-10-02T07:42:44.586Z,13.28
2022-10-02T07:45:45.949Z,13.40
2022-10-02T07:48:34.159Z,13.53
2022-10-02T07:51:41.390Z,13.53
2022-10-02T07:54:26.938Z,13.61
2022-10-02T07:57:34.180Z,13.59
2022-10-02T08:00:20.650Z,13.57
2022-10-02T08:03:17.177Z,13.60
2022-10-02T08:06:03.597Z,13.53
2022-10-02T08:09:12.259Z,13.60
2022-10-02T08:11:59.728Z,13.70
2022-10-02T08:14:46.660Z,13.93
2022-10-02T08:17:42.981Z,14.07
2022-10-02T08:20:31.234Z,14.17
2022-10-02T08:23:39.670Z,14.41
2022-10-02T08:26:34.522Z,14.41
2022-10-02T08:29:24.198Z,14.49
2022-10-02T08:32:09.993Z,14.56
2022-10-02T08:34:56.022Z,14.65
2022-10-02T08:37:42.548Z,14.52
2022-10-02T08:40:55.951Z,14.55
2022-10-02T08:44:00.226Z,14.52
2022-10-02T08:47:04.713Z,14.66
2022-10-02T08:50:08.140Z,14.77
2022-10-02T08:53:02.562Z,15.01
2022-10-02T08:55:52.895Z,15.23
2022-10-02T08:58:41.043Z,15.38
2022-10-02T09:01:29.278Z,15.46
2022-10-02T09:04:41.702Z,15.51
2022-10-02T09:07:36.382Z,15.41
2022-10-02T09:10:49.650Z,15.32
2022-10-02T09:13:40.098Z,15.34
2022-10-02T09:16:43.776Z,15.43
2022-10-02T09:19:44.436Z,15.32
2022-10-02T09:22:30.022Z,15.24
2022-10-02T09:25:30.833Z,15.20
2022-10-02T09:28:34.819Z,15.40
2022-10-02T09:31:40.146Z,15.20
2022-10-02T09:34:43.833Z,15.34
2022-10-02T09:37:29.150Z,15.52
2022-10-02T09:40:33.167Z,15.50
2022-10-02T09:43:38.763Z,15.53
2022-10-02T09:46:48.060Z,15.63
2022-10-02T09:49:36.499Z,15.54
2022-10-02T09:52:31.009Z,15.64
2022-10-02T09:55:36.558Z,15.62
2022-10-02T09:58:35.624Z,15.57
2022-10-02T10:01:23.895Z,15.91
2022-10-02T10:04:18.358Z,16.03
2022-10-02T10:07:30.698Z,15.78
2022-10-02T10:10:25.573Z,15.73
2022-10-02T10:13:12.381Z,15.67
2022-10-02T10:16:19.176Z,15.51
2022-10-02T10:19:23.705Z,15.34
2022-10-02T10:22:14.974Z,15.10
2022-10-02T10:25:18.143Z,14.77
2022-10-02T10:28:06.812Z,14.59
2022-10-02T10:30:56.297Z,14.47
2022-10-02T10:34:03.804Z,14.56
2022-10-02T10:37:19.302Z,14.99
2022-10-02T10:40:19.478Z,15.40
2022-10-02T10:43:19.678Z,15.72
2022-10-02T10:46:09.103Z,15.60
2022-10-02T10:51:03.342Z,15.13
2022-10-02T10:54:02.044Z,15.08
2022-10-02T10:57:19.157Z,14.99
2022-10-02T11:00:30.455Z,15.06
2022-10-02T11:03:29.469Z,15.27
2022-10-02T11:06:30.066Z,15.56
2022-10-02T11:09:41.205Z,15.83
2022-10-02T11:12:45.491Z,16.26
2022-10-02T11:15:43.100Z,16.37
2022-10-02T11:18:38.738Z,16.16
2022-10-02T11:21:42.944Z,16.09
2022-10-02T11:24:42.729Z,15.78
2022-10-02T11:27:47.416Z,15.38
2022-10-02T11:30:40.834Z,14.71
2022-10-02T11:33:33.647Z,14.16
2022-10-02T11:36:52.603Z,13.69
2022-10-02T11:40:02.642Z,13.40
2022-10-02T11:43:30.041Z,13.62
2022-10-02T11:46:28.104Z,13.68
2022-10-02T11:49:41.668Z,13.87
2022-10-02T11:52:44.724Z,14.18
2022-10-02T11:55:36.791Z,14.32
2022-10-02T11:59:00.511Z,14.61
2022-10-02T12:02:15.655Z,14.68
2022-10-02T12:05:33.932Z,14.70
2022-10-02T12:08:50.419Z,14.92
2022-10-02T12:11:51.112Z,14.77
2022-10-02T12:14:43.685Z,14.80
2022-10-02T12:17:32.942Z,14.88
2022-10-02T12:21:01.971Z,14.80
2022-10-02T12:24:07.675Z,15.08
2022-10-02T12:27:04.202Z,15.49
2022-10-02T12:30:08.027Z,15.44
2022-10-02T12:33:21.383Z,15.32
2022-10-02T12:36:25.397Z,15.41
2022-10-02T12:39:46.718Z,15.35
2022-10-02T12:42:35.229Z,15.25
2022-10-02T12:45:23.725Z,15.09
2022-10-02T12:48:18.431Z,15.00
2022-10-02T12:51:29.614Z,14.86
2022-10-02T12:54:33.936Z,14.90
2022-10-02T12:57:58.949Z,15.01
2022-10-02T13:01:22.104Z,15.10
2022-10-02T13:04:38.164Z,15.10
2022-10-02T13:07:45.555Z,15.37
2022-10-02T13:10:35.322Z,15.71
2022-10-02T13:13:57.148Z,16.01
2022-10-02T13:16:51.146Z,16.19
2022-10-02T13:19:36.670Z,16.28
2022-10-02T13:22:34.763Z,16.23
2022-10-02T13:25:26.426Z,16.24
2022-10-02T13:28:49.912Z,16.03
2022-10-02T13:32:08.527Z,15.90
2022-10-02T13:35:18.670Z,15.90
2022-10-02T13:38:26.769Z,15.83
2022-10-02T13:41:26.957Z,15.80
2022-10-02T13:44:24.655Z,15.65
2022-10-02T13:47:39.347Z,15.60
2022-10-02T13:50:34.738Z,15.54
2022-10-02T13:53:26.607Z,15.57
2022-10-02T13:56:34.599Z,15.65
2022-10-02T13:59:49.709Z,15.70
2022-10-02T14:02:44.838Z,15.76
2022-10-02T14:05:45.519Z,15.77
2022-10-02T14:08:42.527Z,15.75
2022-10-02T14:12:09.412Z,15.75
2022-10-02T14:15:04.030Z,15.72
2022-10-02T14:18:11.007Z,15.72
2022-10-02T14:21:30.954Z,15.73
2022-10-02T14:25:00.749Z,15.70
2022-10-02T14:27:57.287Z,15.69
2022-10-02T14:31:08.053Z,15.64
2022-10-02T14:34:31.557Z,15.59
2022-10-02T14:37:28.841Z,15.56
2022-10-02T14:40:19.634Z,15.50
2022-10-02T14:43:04.987Z,15.48
2022-10-02T14:45:56.638Z,15.45
2022-10-02T14:48:57.582Z,15.43
2022-10-02T14:52:07.531Z,15.39
2022-10-02T14:54:53.199Z,15.40
2022-10-02T14:57:57.985Z,15.38
2022-10-02T15:01:23.141Z,15.32
2022-10-02T15:04:22.546Z,15.26
2022-10-02T15:07:14.794Z,15.26
2022-10-02T15:10:16.463Z,15.23
2022-10-02T15:13:10.288Z,15.14
2022-10-02T15:16:30.193Z,15.08
2022-10-02T15:19:25.648Z,15.05
2022-10-02T15:22:22.050Z,15.05
2022-10-02T15:25:23.540Z,15.14
2022-10-02T15:28:42.316Z,15.18
2022-10-02T15:31:44.342Z,15.26
2022-10-02T15:34:46.600Z,15.25
2022-10-02T15:37:42.392Z,15.22
2022-10-02T15:41:05.943Z,15.16
2022-10-02T15:43:51.204Z,15.19
2022-10-02T15:47:15.392Z,15.16
2022-10-02T15:50:27.857Z,15.03
2022-10-02T15:53:31.679Z,14.98
2022-10-02T15:56:30.179Z,14.88
2022-10-02T15:59:31.398Z,14.81
2022-10-02T16:02:39.173Z,14.74
2022-10-02T16:05:46.327Z,14.67
2022-10-02T16:09:04.854Z,14.56
2022-10-02T16:12:38.656Z,14.50
2022-10-02T16:15:31.823Z,14.45
2022-10-02T16:18:17.354Z,14.41
2022-10-02T16:21:22.030Z,14.36
2022-10-02T16:24:40.840Z,14.30
2022-10-02T16:28:09.103Z,14.26
2022-10-02T16:31:00.354Z,14.20
2022-10-02T16:33:56.854Z,14.13
2022-10-02T16:36:59.958Z,14.09
2022-10-02T16:39:57.783Z,14.04
2022-10-02T16:43:14.362Z,13.98
2022-10-02T16:46:00.334Z,13.96
2022-10-02T16:48:59.053Z,13.92
2022-10-02T16:51:50.672Z,13.86
2022-10-02T16:54:56.666Z,13.82
2022-10-02T16:57:42.247Z,13.77
2022-10-02T17:00:37.709Z,13.69
2022-10-02T17:03:45.448Z,13.64
2022-10-02T17:06:40.541Z,13.62
2022-10-02T17:09:41.855Z,13.59
2022-10-02T17:12:58.213Z,13.53
2022-10-02T17:15:58.960Z,13.51
2022-10-02T17:18:52.835Z,13.44
2022-10-02T17:21:38.320Z,13.40
2022-10-02T17:24:33.061Z,13.38
2022-10-02T17:27:33.866Z,13.36
2022-10-02T17:30:30.131Z,13.32
2022-10-02T17:33:23.062Z,13.24
2022-10-02T17:36:33.082Z,13.19
2022-10-02T17:39:36.799Z,13.16
2022-10-02T17:42:42.095Z,13.10
2022-10-02T17:45:45.699Z,13.06
2022-10-02T17:49:06.471Z,13.05
2022-10-02T17:51:54.397Z,13.03
2022-10-02T17:55:27.120Z,13.00
2022-10-02T17:58:35.479Z,12.96
2022-10-02T18:01:52.958Z,12.95
2022-10-02T18:04:54.429Z,12.94
2022-10-02T18:08:07.279Z,12.95
2022-10-02T18:11:05.719Z,12.95
2022-10-02T18:14:13.679Z,12.95
2022-10-02T18:17:41.824Z,12.95
2022-10-02T18:20:35.410Z,12.94
2022-10-02T18:23:43.762Z,12.93
2022-10-02T18:26:47.529Z,12.92
2022-10-02T18:30:01.010Z,12.92
2022-10-02T18:33:05.125Z,12.89
2022-10-02T18:36:02.631Z,12.90
2022-10-02T18:38:51.203Z,12.84
2022-10-02T18:41:56.627Z,12.81
2022-10-02T18:44:58.462Z,12.76
2022-10-02T18:48:03.104Z,12.73
2022-10-02T18:51:04.191Z,12.70
2022-10-02T18:54:07.934Z,12.65
2022-10-02T18:57:08.940Z,12.65
2022-10-02T19:00:13.547Z,12.62
2022-10-02T19:03:01.704Z,12.60
2022-10-02T19:06:09.570Z,12.59
2022-10-02T19:09:07.189Z,12.55
2022-10-02T19:12:08.980Z,12.54
2022-10-02T19:14:56.495Z,12.52
2022-10-02T19:17:56.309Z,12.51
2022-10-02T19:20:51.195Z,12.46
2022-10-02T19:24:01.498Z,12.44
2022-10-02T19:26:52.117Z,12.42
2022-10-02T19:29:54.429Z,12.38
2022-10-02T19:32:41.367Z,12.35
2022-10-02T19:35:42.547Z,12.32
2022-10-02T19:38:32.983Z,12.30
2022-10-02T19:41:18.805Z,12.27
2022-10-02T19:44:11.713Z,12.25
2022-10-02T19:47:01.728Z,12.24
2022-10-02T19:49:49.222Z,12.23
2022-10-02T19:52:37.876Z,12.18
2022-10-02T19:55:31.543Z,12.17
2022-10-02T19:58:22.500Z,12.17
2022-10-02T20:01:19.299Z,12.14
2022-10-02T20:04:06.138Z,12.13
2022-10-02T20:07:00.002Z,12.10
2022-10-02T20:09:52.307Z,12.10
2022-10-02T20:12:46.398Z,12.06
2022-10-02T20:16:07.619Z,12.04
2022-10-02T20:18:53.544Z,12.04
2022-10-02T20:21:47.406Z,12.01
2022-10-02T20:24:45.309Z,11.97
2022-10-02T20:27:44.010Z,11.97
2022-10-02T20:30:41.726Z,11.92
2022-10-02T20:33:40.436Z,11.95
2022-10-02T20:36:38.589Z,11.91
2022-10-02T20:39:33.222Z,11.87
2022-10-02T20:42:25.729Z,11.86
2022-10-02T20:45:13.378Z,11.82
2022-10-02T20:48:55.679Z,11.83
2022-10-02T20:51:53.051Z,11.80
2022-10-02T20:55:27.010Z,11.79
2022-10-02T20:58:43.257Z,11.80
2022-10-02T21:01:37.407Z,11.77
2022-10-02T21:04:51.088Z,11.75
2022-10-02T21:07:39.288Z,11.72
2022-10-02T21:10:30.869Z,11.74
2022-10-02T21:13:16.492Z,11.73
2022-10-02T21:16:14.004Z,11.73
2022-10-02T21:19:22.158Z,11.70
2022-10-02T21:22:59.899Z,11.66
2022-10-02T21:25:54.820Z,11.68
2022-10-02T21:29:08.966Z,11.63
2022-10-02T21:32:00.699Z,11.64
2022-10-02T21:34:52.418Z,11.62
2022-10-02T21:38:00.174Z,11.61
2022-10-02T21:41:37.115Z,11.61
2022-10-02T21:44:47.205Z,11.56
2022-10-02T21:47:53.665Z,11.55
2022-10-02T21:51:38.293Z,11.54
2022-10-02T21:54:44.261Z,11.53
2022-10-02T21:57:36.828Z,11.54
2022-10-02T22:00:25.781Z,11.51
2022-10-02T22:03:36.900Z,11.50
2022-10-02T22:06:56.120Z,11.48
2022-10-02T22:09:47.405Z,11.47
2022-10-02T22:12:54.640Z,11.40
2022-10-02T22:16:08.156Z,11.43
2022-10-02T22:19:16.578Z,11.38
2022-10-02T22:22:18.239Z,11.35
2022-10-02T22:25:45.198Z,11.37
2022-10-02T22:28:36.734Z,11.37
2022-10-02T22:31:51.476Z,11.32
2022-10-02T22:34:51.623Z,11.35
2022-10-02T22:37:58.656Z,11.32
2022-10-02T22:40:52.155Z,11.31
2022-10-02T22:44:02.618Z,11.25
2022-10-02T22:46:57.020Z,11.27
2022-10-02T22:49:48.826Z,11.23
2022-10-02T22:52:47.571Z,11.25
2022-10-02T22:55:50.145Z,11.25
2022-10-02T22:58:47.694Z,11.18
2022-10-02T23:01:59.246Z,11.14
2022-10-02T23:04:55.170Z,11.13
2022-10-02T23:07:46.543Z,11.14
2022-10-02T23:10:46.568Z,11.09
2022-10-02T23:13:35.991Z,11.08
2022-10-02T23:16:56.295Z,11.06
2022-10-02T23:20:02.382Z,11.09
2022-10-02T23:22:55.013Z,11.06
2022-10-02T23:25:49.812Z,11.06
2022-10-02T23:28:52.170Z,11.06
2022-10-02T23:31:53.838Z,11.00
2022-10-02T23:34:51.189Z,10.99
2022-10-02T23:37:50.109Z,11.00
2022-10-02T23:41:32.706Z,11.02
2022-10-02T23:44:40.628Z,11.06
2022-10-02T23:47:36.767Z,11.11
2022-10-02T23:50:28.356Z,11.16
2022-10-02T23:53:35.617Z,11.20
2022-10-02T23:56:40.160Z,11.24
2022-10-02T23:59:32.728Z,11.27
